Time;durP1;ratioP1;P1;durP2;ratioP2;P2;SDS_P1;SDS_P2;PMS_P1;PMS_P2;Temp;Humidity;BMP_temperature;BMP_pressure;BME280_temperature;BME280_humidity;BME280_pressure;Samples;Min_cycle;Max_cycle;Signal;HPM_P1;HPM_P2
2022/06/12 00:00:12;;;;;;;2.25;2.05;;;;;;;16.41;79.04;97179.25;5051545;28;20306;-50
2022/06/12 00:02:42;;;;;;;1.85;1.70;;;;;;;16.36;79.06;97176.25;5052112;28;20278;-50
2022/06/12 00:05:10;;;;;;;1.85;1.75;;;;;;;16.24;78.62;97171.38;5051614;28;20286;-50
2022/06/12 00:07:38;;;;;;;2.70;2.17;;;;;;;16.31;78.31;97175.06;5051871;28;20195;-50
2022/06/12 00:10:06;;;;;;;2.30;2.20;;;;;;;16.31;77.98;97173.22;5051022;28;20207;-49
2022/06/12 00:12:34;;;;;;;1.97;1.83;;;;;;;16.26;79.52;97172.06;5050931;28;20223;-50
2022/06/12 00:15:01;;;;;;;1.70;1.60;;;;;;;16.31;78.38;97172.41;5050133;28;21410;-50
2022/06/12 00:17:30;;;;;;;1.90;1.80;;;;;;;16.36;76.88;97178.09;5050729;28;20306;-50
2022/06/12 00:19:56;;;;;;;1.90;1.80;;;;;;;16.34;78.25;97172.91;5051123;28;20222;-51
2022/06/12 00:22:23;;;;;;;2.10;2.00;;;;;;;16.26;78.32;97177.41;5051676;28;20290;-50
2022/06/12 00:24:52;;;;;;;2.00;1.90;;;;;;;16.33;77.46;97175.75;5050743;28;20536;-50
2022/06/12 00:27:19;;;;;;;2.40;1.70;;;;;;;16.37;76.53;97177.06;5050534;28;20199;-50
2022/06/12 00:29:51;;;;;;;1.75;1.65;;;;;;;16.41;76.72;97175.72;5051061;28;20211;-49
2022/06/12 00:32:19;;;;;;;1.85;1.75;;;;;;;16.31;75.52;97175.91;5074105;28;20233;-50
2022/06/12 00:34:49;;;;;;;1.92;1.80;;;;;;;16.25;78.65;97178.41;5066485;28;20247;-50
2022/06/12 00:37:18;;;;;;;1.70;1.60;;;;;;;16.20;78.58;97178.88;5063908;28;20226;-50
2022/06/12 00:39:47;;;;;;;2.13;1.90;;;;;;;16.15;77.66;97178.56;5050542;28;20214;-51
2022/06/12 00:42:22;;;;;;;2.57;2.03;;;;;;;16.09;79.60;97181.03;5049670;28;20199;-50
2022/06/12 00:44:51;;;;;;;2.10;1.70;;;;;;;16.04;80.74;97181.53;5050578;28;20318;-50
2022/06/12 00:47:21;;;;;;;2.85;1.77;;;;;;;16.02;80.54;97182.69;5050599;28;20203;-50
2022/06/12 00:49:52;;;;;;;1.73;1.63;;;;;;;16.05;78.92;97174.38;5048084;28;20296;-51
2022/06/12 00:52:24;;;;;;;2.38;1.95;;;;;;;15.97;80.79;97175.19;5050391;28;20219;-50
2022/06/12 00:54:55;;;;;;;2.15;1.95;;;;;;;15.99;78.87;97178.53;5050634;28;20191;-50
2022/06/12 00:57:27;;;;;;;2.00;1.90;;;;;;;15.92;80.52;97182.84;5050262;28;20268;-50
2022/06/12 00:59:56;;;;;;;1.80;1.70;;;;;;;15.89;80.21;97183.16;5050414;28;20295;-50
2022/06/12 01:02:27;;;;;;;2.53;1.57;;;;;;;15.94;79.27;97171.00;5050221;28;20206;-50
2022/06/12 01:07:40;;;;;;;2.10;1.90;;;;;;;15.81;80.19;97177.81;5051315;28;20302;-50
2022/06/12 01:10:11;;;;;;;2.00;1.90;;;;;;;15.87;80.86;97174.50;5051980;28;20269;-50
2022/06/12 01:12:43;;;;;;;1.83;1.73;;;;;;;15.78;81.79;97170.97;5051576;28;20309;-50
2022/06/12 01:15:13;;;;;;;1.77;1.67;;;;;;;15.75;81.39;97160.63;5051694;28;20207;-50
2022/06/12 01:17:43;;;;;;;2.20;2.07;;;;;;;15.68;81.89;97161.44;5051344;28;20199;-51
2022/06/12 01:20:13;;;;;;;2.23;1.73;;;;;;;15.68;82.51;97156.94;5051525;28;20221;-49
2022/06/12 01:22:56;;;;;;;3.72;2.17;;;;;;;15.67;81.89;97160.59;5051435;28;20207;-50
2022/06/12 01:25:48;;;;;;;2.13;1.93;;;;;;;15.65;81.92;97161.78;5051732;28;20223;-50
2022/06/12 01:28:45;;;;;;;1.83;1.67;;;;;;;15.60;81.93;97164.06;5050252;28;20207;-49
2022/06/12 01:31:35;;;;;;;2.10;1.90;;;;;;;15.54;82.25;97162.91;5051687;28;20207;-50
2022/06/12 01:34:10;;;;;;;2.57;1.73;;;;;;;15.59;83.35;97159.75;5051443;28;20272;-50
2022/06/12 01:36:43;;;;;;;1.90;1.80;;;;;;;15.64;83.11;97158.25;5050654;28;20208;-50
2022/06/12 01:39:17;;;;;;;2.07;1.63;;;;;;;15.64;81.59;97142.25;5051036;28;20191;-50
2022/06/12 01:42:02;;;;;;;2.00;1.90;;;;;;;15.59;83.07;97149.91;5052062;28;20191;-50
2022/06/12 01:44:39;;;;;;;2.07;1.97;;;;;;;15.50;83.20;97150.03;5050900;28;20307;-50
2022/06/12 01:47:10;;;;;;;2.00;1.90;;;;;;;15.43;84.02;97158.66;5051198;28;20195;-49
2022/06/12 01:49:43;;;;;;;1.70;1.60;;;;;;;15.43;83.61;97156.00;5052372;28;20283;-50
2022/06/12 01:52:15;;;;;;;1.83;1.73;;;;;;;15.37;83.28;97153.13;5036846;28;20242;-55
2022/06/12 01:54:46;;;;;;;1.93;1.83;;;;;;;15.39;83.51;97157.31;5053763;28;20213;-50
2022/06/12 01:57:18;;;;;;;2.37;2.17;;;;;;;15.34;83.21;97159.59;5054725;28;20203;-50
2022/06/12 01:59:51;;;;;;;2.10;2.00;;;;;;;15.28;84.04;97156.75;5054906;28;20214;-50
2022/06/12 02:02:25;;;;;;;2.00;1.90;;;;;;;15.27;85.12;97163.91;5056048;28;20282;-50
2022/06/12 02:04:56;;;;;;;2.40;1.70;;;;;;;15.25;84.70;97171.22;5055288;28;20532;-50
2022/06/12 02:07:28;;;;;;;2.23;2.03;;;;;;;15.20;84.47;97175.34;5055413;28;20302;-50
2022/06/12 02:09:59;;;;;;;1.97;1.87;;;;;;;15.19;83.82;97171.88;5054877;28;20210;-50
2022/06/12 02:15:24;;;;;;;1.60;1.50;;;;;;;15.18;86.73;97161.38;5054932;28;20665;-50
2022/06/12 02:17:54;;;;;;;2.10;1.77;;;;;;;15.15;86.47;97161.69;5055115;28;20290;-50
2022/06/12 02:20:26;;;;;;;2.07;1.80;;;;;;;15.12;85.73;97162.00;5055154;28;20207;-49
2022/06/12 02:22:53;;;;;;;2.13;1.93;;;;;;;15.07;86.60;97159.81;5054041;28;20250;-49
2022/06/12 02:25:23;;;;;;;2.10;2.00;;;;;;;15.04;87.97;97153.97;5054470;28;20282;-50
2022/06/12 02:27:54;;;;;;;2.20;2.10;;;;;;;14.99;87.66;97156.25;5053856;28;20286;-51
2022/06/12 02:30:25;;;;;;;1.80;1.70;;;;;;;15.09;85.54;97163.13;5054371;28;20680;-50
2022/06/12 02:32:57;;;;;;;1.97;1.80;;;;;;;15.06;86.14;97162.63;5054338;28;20227;-49
2022/06/12 02:35:26;;;;;;;1.80;1.70;;;;;;;14.99;86.20;97161.59;5054426;28;20206;-50
2022/06/12 02:37:59;;;;;;;2.03;1.90;;;;;;;14.91;86.88;97163.19;5054128;28;20598;-50
2022/06/12 02:40:31;;;;;;;3.60;1.73;;;;;;;14.91;87.74;97159.72;5053713;28;20282;-49
2022/06/12 02:43:00;;;;;;;2.20;2.10;;;;;;;14.93;87.18;97163.91;5053924;28;20191;-49
2022/06/12 02:45:33;;;;;;;2.20;2.00;;;;;;;14.92;86.31;97167.53;5054154;28;20229;-50
2022/06/12 02:48:01;;;;;;;2.30;2.13;;;;;;;14.87;87.37;97159.22;5062358;28;20199;-51
2022/06/12 02:50:29;;;;;;;1.73;1.63;;;;;;;14.92;85.26;97162.22;5071603;28;20179;-50
2022/06/12 02:53:01;;;;;;;1.63;1.53;;;;;;;14.89;85.69;97154.53;5077061;28;20241;-50
2022/06/12 02:55:33;;;;;;;1.93;1.63;;;;;;;14.87;86.61;97159.22;5060753;28;20196;-50
2022/06/12 02:58:07;;;;;;;2.00;1.90;;;;;;;14.82;87.31;97156.16;5053371;28;20217;-50
2022/06/12 03:00:41;;;;;;;2.27;2.07;;;;;;;14.88;86.88;97157.34;5053888;28;20214;-50
2022/06/12 03:03:15;;;;;;;1.90;1.80;;;;;;;14.78;86.88;97160.13;5053401;28;20201;-49
2022/06/12 03:05:48;;;;;;;2.03;1.90;;;;;;;14.76;87.89;97162.13;5053788;28;20206;-50
2022/06/12 03:08:18;;;;;;;2.20;2.00;;;;;;;14.77;88.01;97160.31;5053744;28;20290;-51
2022/06/12 03:10:48;;;;;;;2.03;1.93;;;;;;;14.72;87.51;97155.44;5053827;28;20594;-49
2022/06/12 03:13:16;;;;;;;2.10;2.00;;;;;;;14.69;87.04;97155.75;5053362;28;20341;-49
2022/06/12 03:15:47;;;;;;;2.67;2.10;;;;;;;14.69;87.36;97163.75;5053277;28;20214;-50
2022/06/12 03:18:18;;;;;;;2.00;1.90;;;;;;;14.69;86.92;97162.91;5053299;28;20203;-50
2022/06/12 03:20:55;;;;;;;3.13;2.20;;;;;;;14.68;88.00;97158.56;5051871;28;20298;-50
2022/06/12 03:23:32;;;;;;;1.70;1.60;;;;;;;14.58;88.31;97158.66;5053244;28;20244;-50
2022/06/12 03:26:01;;;;;;;3.27;1.83;;;;;;;14.54;89.23;97159.13;5053522;28;20207;-50
2022/06/12 03:28:34;;;;;;;2.03;1.90;;;;;;;14.54;88.94;97162.63;5054172;28;20203;-50
2022/06/12 03:31:06;;;;;;;2.80;2.00;;;;;;;14.52;88.57;97163.78;5053377;28;20620;-49
2022/06/12 03:33:38;;;;;;;3.13;2.10;;;;;;;14.55;89.83;97163.47;5053323;28;20221;-50
2022/06/12 03:36:11;;;;;;;2.30;2.10;;;;;;;14.52;90.57;97166.44;5052910;28;20322;-50
2022/06/12 03:38:41;;;;;;;2.80;2.17;;;;;;;14.54;90.07;97173.28;5053551;28;20209;-50
2022/06/12 03:41:14;;;;;;;2.73;2.10;;;;;;;14.52;90.85;97166.44;5052769;28;20269;-50
2022/06/12 03:43:44;;;;;;;1.90;1.80;;;;;;;14.52;90.85;97171.75;5053000;28;20330;-50
2022/06/12 03:46:20;;;;;;;2.40;2.20;;;;;;;14.50;90.26;97169.25;5053109;28;20230;-50
2022/06/12 03:48:52;;;;;;;2.07;1.97;;;;;;;14.47;90.39;97166.06;5053170;28;20217;-49
2022/06/12 03:51:25;;;;;;;2.20;2.10;;;;;;;14.49;91.51;97167.56;5052093;28;20901;-50
2022/06/12 03:53:55;;;;;;;1.93;1.83;;;;;;;14.49;91.91;97167.56;5052442;28;20210;-50
2022/06/12 03:59:13;;;;;;;2.30;2.07;;;;;;;14.54;92.85;97177.75;5052685;28;20209;-50
2022/06/12 04:01:43;;;;;;;1.87;1.73;;;;;;;14.56;92.56;97171.28;5052652;28;20298;-50
2022/06/12 04:04:11;;;;;;;2.67;2.20;;;;;;;14.58;92.51;97179.13;5052773;28;20203;-51
2022/06/12 04:06:40;;;;;;;2.10;2.00;;;;;;;14.61;92.10;97179.66;5052841;28;20195;-50
2022/06/12 04:09:15;;;;;;;2.03;1.93;;;;;;;14.67;90.93;97181.69;5051729;28;20306;-50
2022/06/12 04:11:42;;;;;;;2.20;2.07;;;;;;;14.80;90.89;97189.28;5051914;28;20290;-49
2022/06/12 04:14:17;;;;;;;2.13;2.03;;;;;;;14.95;91.00;97193.03;5052322;28;20290;-49
2022/06/12 04:16:51;;;;;;;2.03;1.93;;;;;;;15.47;87.85;97185.81;5052821;28;20201;-50
2022/06/12 04:19:20;;;;;;;2.33;2.10;;;;;;;15.73;87.03;97183.94;5051749;28;20321;-50
2022/06/12 04:21:53;;;;;;;2.30;2.20;;;;;;;16.17;85.61;97181.06;5051641;28;20207;-50
2022/06/12 04:24:23;;;;;;;2.07;1.97;;;;;;;16.42;83.30;97178.25;5052455;28;20205;-50
2022/06/12 04:26:52;;;;;;;1.93;1.83;;;;;;;16.62;81.52;97170.75;5051428;28;20244;-50
2022/06/12 04:29:23;;;;;;;2.60;2.40;;;;;;;16.96;80.38;97180.41;5052550;28;20263;-50
2022/06/12 04:31:54;;;;;;;2.60;2.35;;;;;;;17.22;79.07;97189.03;5052452;28;20195;-50
2022/06/12 04:34:23;;;;;;;2.47;2.38;;;;;;;17.40;78.93;97197.69;5052297;28;20658;-50
2022/06/12 04:36:54;;;;;;;2.30;2.10;;;;;;;17.48;77.90;97189.63;5052639;28;20204;-50
2022/06/12 04:39:27;;;;;;;2.30;2.20;;;;;;;17.42;78.71;97185.00;5052492;28;20245;-50
2022/06/12 04:41:55;;;;;;;3.92;2.92;;;;;;;17.29;79.67;97179.31;5052422;28;20288;-50
2022/06/12 04:44:22;;;;;;;2.65;2.45;;;;;;;17.45;78.65;97173.94;5051985;28;20261;-50
2022/06/12 04:46:52;;;;;;;3.50;2.83;;;;;;;17.55;78.52;97174.56;5052173;28;20286;-50
2022/06/12 04:49:24;;;;;;;2.53;2.42;;;;;;;17.57;78.75;97175.25;5052040;28;20199;-50
2022/06/12 04:51:53;;;;;;;2.95;2.67;;;;;;;17.85;77.96;97164.94;5051439;28;20274;-50
2022/06/12 04:54:20;;;;;;;4.63;2.70;;;;;;;17.85;77.20;97162.25;5051455;28;20294;-50
2022/06/12 04:56:50;;;;;;;3.28;3.00;;;;;;;17.86;77.33;97167.41;5052352;28;20209;-50
2022/06/12 04:59:19;;;;;;;2.90;2.65;;;;;;;17.69;78.60;97165.00;5052527;28;20203;-50
2022/06/12 05:01:47;;;;;;;3.10;2.90;;;;;;;17.55;80.26;97169.22;5045751;28;20227;-50
2022/06/12 05:04:15;;;;;;;2.63;2.42;;;;;;;17.54;80.58;97180.06;5068674;28;20282;-50
2022/06/12 05:06:44;;;;;;;4.72;2.92;;;;;;;17.47;81.78;97182.59;5072797;28;20206;-50
2022/06/12 05:09:12;;;;;;;3.55;2.95;;;;;;;17.53;82.26;97191.81;5060521;28;20226;-50
2022/06/12 05:11:39;;;;;;;3.40;3.10;;;;;;;17.60;80.48;97182.09;5052821;28;20213;-50
2022/06/12 05:14:05;;;;;;;3.42;3.10;;;;;;;17.79;80.82;97190.53;5052232;28;20223;-50
2022/06/12 05:16:38;;;;;;;3.40;3.10;;;;;;;18.06;78.29;97191.06;5052175;28;20317;-50
2022/06/12 05:19:07;;;;;;;3.20;3.00;;;;;;;18.33;76.66;97185.22;5052537;28;20199;-50
2022/06/12 05:21:37;;;;;;;3.13;2.88;;;;;;;18.54;73.92;97193.44;5053718;28;20288;-50
2022/06/12 05:24:06;;;;;;;3.67;3.40;;;;;;;18.72;73.09;97190.47;5053338;28;20202;-50
2022/06/12 05:26:34;;;;;;;2.92;2.72;;;;;;;18.92;72.56;97196.16;5054906;28;20731;-50
2022/06/12 05:29:04;;;;;;;3.33;3.08;;;;;;;19.05;73.31;97191.84;5056820;28;20241;-50
2022/06/12 05:31:32;;;;;;;3.38;3.00;;;;;;;19.34;71.23;97196.41;5059716;28;20191;-51
2022/06/12 05:33:58;;;;;;;3.38;3.05;;;;;;;19.56;69.79;97191.97;5075806;28;20381;-49
2022/06/12 05:36:25;;;;;;;3.55;3.25;;;;;;;19.84;69.69;97184.91;5078417;28;20210;-49
2022/06/12 05:38:54;;;;;;;3.03;2.70;;;;;;;19.84;69.81;97185.75;5078304;28;20197;-49
2022/06/12 05:41:20;;;;;;;2.95;2.75;;;;;;;19.84;69.78;97183.06;5078250;28;20182;-50
2022/06/12 05:43:55;;;;;;;3.20;3.00;;;;;;;20.20;67.87;97188.44;5074605;28;20227;-51
2022/06/12 05:46:23;;;;;;;3.15;2.95;;;;;;;20.30;67.10;97182.78;5074151;28;20194;-54
2022/06/12 05:48:50;;;;;;;3.00;2.80;;;;;;;20.60;66.45;97184.34;5077146;28;20182;-50
2022/06/12 05:51:19;;;;;;;3.28;3.08;;;;;;;20.82;65.27;97183.31;5088491;28;20199;-50
2022/06/12 05:53:46;;;;;;;2.90;2.70;;;;;;;20.94;64.92;97186.28;5079114;28;20207;-50
2022/06/12 05:56:18;;;;;;;3.10;2.90;;;;;;;21.10;62.96;97179.81;5065081;28;20583;-50
2022/06/12 05:58:46;;;;;;;3.63;2.60;;;;;;;21.36;65.36;97184.59;5051425;28;20263;-51
2022/06/12 06:01:19;;;;;;;6.07;3.00;;;;;;;21.59;62.79;97191.34;5050632;28;20289;-51
2022/06/12 06:03:46;;;;;;;3.05;2.55;;;;;;;21.75;59.66;97191.00;5051319;28;20214;-51
2022/06/12 06:06:17;;;;;;;3.38;3.05;;;;;;;21.93;61.90;97184.31;5050157;28;20282;-50
2022/06/12 06:08:46;;;;;;;4.03;2.40;;;;;;;21.89;62.80;97188.41;5051054;28;20218;-51
2022/06/12 06:11:17;;;;;;;3.28;2.97;;;;;;;21.79;61.93;97191.44;5050880;28;20636;-50
2022/06/12 06:13:45;;;;;;;3.70;3.05;;;;;;;21.94;62.95;97188.63;5050378;28;20669;-51
2022/06/12 06:16:12;;;;;;;3.25;2.95;;;;;;;22.19;61.44;97195.16;5051046;28;20508;-51
2022/06/12 06:18:41;;;;;;;2.85;2.70;;;;;;;22.44;59.78;97190.88;5051210;28;20293;-50
2022/06/12 06:21:08;;;;;;;3.20;2.83;;;;;;;22.35;60.61;97205.59;5051315;28;20286;-50
2022/06/12 06:23:36;;;;;;;7.80;3.10;;;;;;;22.44;58.84;97198.97;5050987;28;20195;-50
2022/06/12 06:26:05;;;;;;;4.85;3.00;;;;;;;22.32;59.56;97203.28;5051401;28;20286;-50
2022/06/12 06:28:35;;;;;;;3.22;2.92;;;;;;;21.97;62.24;97204.38;5050922;28;20211;-50
2022/06/12 06:31:02;;;;;;;3.00;2.80;;;;;;;22.05;62.64;97205.06;5050953;28;20290;-50
2022/06/12 06:33:29;;;;;;;2.95;2.75;;;;;;;21.91;62.57;97206.03;5051061;28;20223;-51
2022/06/12 06:36:00;;;;;;;2.75;2.65;;;;;;;22.06;63.03;97204.03;5052479;28;20195;-55
2022/06/12 06:38:29;;;;;;;2.78;2.65;;;;;;;22.28;62.65;97205.53;5053709;28;20207;-53
2022/06/12 06:40:55;;;;;;;3.47;2.80;;;;;;;22.53;59.50;97208.50;5054827;28;20723;-51
2022/06/12 06:43:25;;;;;;;3.08;2.75;;;;;;;22.73;59.12;97212.13;5054386;28;20292;-52
2022/06/12 06:48:39;;;;;;;2.85;2.65;;;;;;;23.45;57.60;97213.19;5053858;28;20214;-53
2022/06/12 06:51:06;;;;;;;3.85;2.78;;;;;;;23.74;57.51;97218.94;5053845;28;20306;-53
2022/06/12 06:53:33;;;;;;;2.97;2.78;;;;;;;23.81;56.89;97223.53;5053789;28;20273;-52
2022/06/12 06:56:00;;;;;;;2.70;2.50;;;;;;;24.03;56.56;97219.47;5053340;28;20209;-53
2022/06/12 06:58:31;;;;;;;3.05;2.75;;;;;;;24.25;54.65;97212.78;5054792;28;20210;-52
2022/06/12 07:01:00;;;;;;;3.78;2.90;;;;;;;24.82;56.93;97213.69;5054235;28;20203;-53
2022/06/12 07:03:26;;;;;;;3.33;3.03;;;;;;;24.75;53.91;97203.75;5053903;28;20289;-52
2022/06/12 07:05:54;;;;;;;4.35;2.80;;;;;;;24.89;55.55;97203.69;5056860;28;20290;-52
2022/06/12 07:08:22;;;;;;;3.15;2.95;;;;;;;24.90;51.19;97194.53;5057726;28;20528;-52
2022/06/12 07:10:50;;;;;;;3.50;2.65;;;;;;;25.22;52.73;97190.72;5054130;28;20666;-52
2022/06/12 07:13:16;;;;;;;2.63;2.50;;;;;;;25.66;53.11;97189.69;5052352;28;20223;-53
2022/06/12 07:15:43;;;;;;;2.58;2.40;;;;;;;25.73;50.27;97185.84;5053552;28;20298;-52
2022/06/12 07:18:12;;;;;;;2.67;2.47;;;;;;;25.90;49.75;97190.69;5053065;28;20669;-54
2022/06/12 07:20:42;;;;;;;2.70;2.50;;;;;;;25.75;48.46;97191.06;5055950;28;20223;-53
2022/06/12 07:23:11;;;;;;;2.72;2.50;;;;;;;26.06;48.46;97185.47;5068186;28;20199;-54
2022/06/12 07:25:41;;;;;;;2.78;2.58;;;;;;;26.32;50.48;97195.19;5074082;28;20218;-53
2022/06/12 07:28:11;;;;;;;2.35;2.25;;;;;;;26.46;49.13;97191.25;5063836;28;20214;-53
2022/06/12 07:30:38;;;;;;;2.85;2.47;;;;;;;26.68;48.18;97184.22;5054461;28;20203;-54
2022/06/12 07:33:07;;;;;;;2.40;2.20;;;;;;;26.68;46.37;97184.22;5052921;28;20686;-53
2022/06/12 07:35:36;;;;;;;2.22;2.05;;;;;;;26.67;46.86;97182.59;5053227;28;20206;-53
2022/06/12 07:38:07;;;;;;;2.85;2.33;;;;;;;26.82;47.63;97178.63;5053936;28;20199;-53
2022/06/12 07:40:37;;;;;;;2.85;2.33;;;;;;;27.08;44.86;97183.66;5054863;28;20271;-54
2022/06/12 07:43:04;;;;;;;2.70;1.70;;;;;;;27.12;41.20;97173.97;5054848;28;20310;-54
2022/06/12 07:45:34;;;;;;;2.08;1.98;;;;;;;27.41;44.23;97177.66;5055521;28;20294;-52
2022/06/12 07:48:01;;;;;;;2.28;2.08;;;;;;;27.39;42.50;97180.59;5051895;28;20546;-53
2022/06/12 07:50:28;;;;;;;2.03;1.92;;;;;;;27.37;44.16;97174.59;5052966;28;20689;-52
2022/06/12 07:52:58;;;;;;;1.83;1.73;;;;;;;27.57;41.61;97180.50;5052571;28;20199;-53
2022/06/12 07:55:25;;;;;;;2.25;2.15;;;;;;;27.98;44.38;97178.69;5052009;28;20245;-53
2022/06/12 07:57:52;;;;;;;2.03;1.92;;;;;;;28.13;42.03;97165.44;5052473;28;20203;-51
2022/06/12 08:00:22;;;;;;;2.38;2.17;;;;;;;28.22;39.90;97168.59;5052671;28;20207;-55
2022/06/12 08:02:52;;;;;;;2.08;1.90;;;;;;;28.06;41.01;97175.59;5052649;28;20264;-53
2022/06/12 08:05:21;;;;;;;2.20;2.10;;;;;;;28.11;41.15;97173.00;5053755;28;20191;-53
2022/06/12 08:07:47;;;;;;;1.85;1.75;;;;;;;28.24;42.81;97172.72;5053459;28;20238;-51
2022/06/12 08:10:17;;;;;;;3.60;1.88;;;;;;;28.45;41.92;97172.06;5052591;28;20242;-53
2022/06/12 08:12:46;;;;;;;2.38;1.80;;;;;;;28.50;38.99;97172.16;5053355;28;20591;-53
2022/06/12 08:15:15;;;;;;;1.85;1.75;;;;;;;28.35;42.14;97174.59;5053068;28;20215;-53
2022/06/12 08:17:42;;;;;;;1.92;1.73;;;;;;;28.93;37.34;97158.00;5053256;28;20231;-54
2022/06/12 08:20:27;;;;;;;2.05;1.75;;;;;;;28.89;36.34;97166.91;5053811;28;20294;-54
2022/06/12 08:22:56;;;;;;;1.90;1.80;;;;;;;28.73;37.02;97173.16;5052937;28;20218;-54
2022/06/12 08:25:26;;;;;;;1.50;1.50;;;;;;;28.67;37.56;97167.59;5053202;28;20229;-54
2022/06/12 08:27:53;;;;;;;2.10;1.90;;;;;;;28.74;38.54;97170.16;5053331;28;20195;-54
2022/06/12 08:30:22;;;;;;;1.70;1.60;;;;;;;28.50;37.97;97171.34;5052466;28;20598;-55
2022/06/12 08:32:51;;;;;;;1.88;1.63;;;;;;;28.82;38.80;97174.41;5052835;28;20307;-53
2022/06/12 08:35:22;;;;;;;1.40;1.40;;;;;;;29.07;39.51;97172.94;5052397;28;20306;-54
2022/06/12 08:37:49;;;;;;;1.30;1.30;;;;;;;29.04;36.78;97170.72;5052379;28;20509;-53
2022/06/12 08:40:22;;;;;;;1.48;1.10;;;;;;;29.41;34.30;97164.78;5051919;28;20294;-53
2022/06/12 08:42:58;;;;;;;1.58;1.35;;;;;;;29.51;34.10;97160.28;5052573;28;20227;-54
2022/06/12 08:45:28;;;;;;;1.30;1.20;;;;;;;29.50;32.09;97155.94;5051782;28;20243;-53
2022/06/12 08:47:59;;;;;;;1.38;1.25;;;;;;;29.67;35.37;97161.34;5052766;28;20286;-54
2022/06/12 08:50:31;;;;;;;2.92;1.50;;;;;;;29.59;35.96;97153.59;5051339;28;20779;-51
2022/06/12 08:53:03;;;;;;;1.75;1.65;;;;;;;29.51;34.20;97154.03;5052972;28;20218;-51
2022/06/12 08:55:35;;;;;;;2.38;1.30;;;;;;;29.97;36.61;97147.34;5052619;28;20228;-52
2022/06/12 08:58:10;;;;;;;1.80;1.60;;;;;;;30.19;33.60;97148.13;5033680;28;20211;-51
2022/06/12 09:00:41;;;;;;;1.67;1.52;;;;;;;30.09;33.00;97150.75;5051463;28;20311;-51
2022/06/12 09:03:14;;;;;;;2.63;1.52;;;;;;;29.79;35.85;97143.00;5051618;28;20207;-51
2022/06/12 09:05:47;;;;;;;2.47;1.38;;;;;;;29.54;36.65;97138.00;5052551;28;20195;-52
2022/06/12 09:08:17;;;;;;;1.77;1.38;;;;;;;29.68;35.47;97130.28;5051649;28;20293;-50
2022/06/12 09:10:47;;;;;;;1.40;1.30;;;;;;;29.86;35.93;97126.47;5052004;28;20286;-52
2022/06/12 09:13:28;;;;;;;1.40;1.30;;;;;;;30.11;35.23;97124.06;5051249;28;20699;-52
2022/06/12 09:16:00;;;;;;;1.30;1.30;;;;;;;30.51;34.42;97123.69;5052900;28;20301;-52
2022/06/12 09:18:37;;;;;;;1.30;1.20;;;;;;;30.28;31.97;97118.50;5052174;28;20217;-53
2022/06/12 09:21:10;;;;;;;2.88;1.50;;;;;;;30.18;35.47;97113.78;5051505;28;20199;-53
2022/06/12 09:23:42;;;;;;;1.70;1.60;;;;;;;30.44;32.69;97107.50;5050470;28;20278;-52
2022/06/12 09:26:15;;;;;;;1.75;1.40;;;;;;;30.50;35.26;97109.22;5051820;28;20286;-53
2022/06/12 09:28:48;;;;;;;1.83;1.70;;;;;;;30.42;32.87;97106.97;5050405;28;20657;-53
2022/06/12 09:31:20;;;;;;;1.60;1.50;;;;;;;30.61;35.54;97108.22;5051635;28;20218;-51
2022/06/12 09:33:54;;;;;;;1.83;1.65;;;;;;;30.60;33.76;97103.88;5051810;28;20314;-53
2022/06/12 09:36:34;;;;;;;1.50;1.40;;;;;;;30.85;35.17;97107.91;5069755;28;20221;-51
2022/06/12 09:39:07;;;;;;;3.13;1.83;;;;;;;30.67;35.37;97106.38;5068804;28;20219;-50
2022/06/12 09:41:44;;;;;;;1.63;1.52;;;;;;;30.79;30.81;97098.81;5063911;28;20191;-51
2022/06/12 09:44:17;;;;;;;1.85;1.75;;;;;;;30.86;35.21;97101.34;5051387;28;20241;-50
2022/06/12 09:46:56;;;;;;;1.50;1.40;;;;;;;31.04;32.14;97096.34;5051535;28;20210;-50
2022/06/12 09:49:32;;;;;;;1.40;1.30;;;;;;;30.70;35.06;97096.84;5051058;28;20291;-54
2022/06/12 09:52:13;;;;;;;1.52;1.50;;;;;;;30.83;34.46;97099.97;5050773;28;20202;-53
2022/06/12 09:54:47;;;;;;;1.55;1.40;;;;;;;31.01;32.75;97096.88;5050926;28;20302;-54
2022/06/12 09:57:19;;;;;;;1.60;1.50;;;;;;;31.19;33.47;97087.44;5050730;28;20204;-53
2022/06/12 09:59:51;;;;;;;1.65;1.55;;;;;;;31.24;33.88;97082.00;5049585;28;20506;-51
2022/06/12 10:02:21;;;;;;;1.92;1.83;;;;;;;31.33;32.19;97083.16;5051106;28;20229;-52
2022/06/12 10:04:53;;;;;;;1.92;1.83;;;;;;;31.17;35.69;97083.31;5050494;28;20195;-51
2022/06/12 10:07:26;;;;;;;1.55;1.45;;;;;;;31.01;32.31;97075.00;5050276;28;20203;-51
2022/06/12 10:10:00;;;;;;;1.60;1.50;;;;;;;30.95;32.93;97070.56;5050989;28;20199;-50
2022/06/12 10:12:30;;;;;;;1.52;1.42;;;;;;;31.29;33.72;97070.25;5055505;28;20199;-52
2022/06/12 10:15:00;;;;;;;1.48;1.42;;;;;;;31.26;34.63;97065.34;5054619;28;20241;-52
2022/06/12 10:17:32;;;;;;;1.98;1.88;;;;;;;31.49;36.18;97067.66;5055092;28;20209;-51
2022/06/12 10:20:03;;;;;;;3.63;1.73;;;;;;;31.45;34.31;97064.66;5054642;28;20203;-52
2022/06/12 10:22:33;;;;;;;1.70;1.65;;;;;;;31.23;31.82;97063.97;5055525;28;20276;-54
2022/06/12 10:25:01;;;;;;;2.80;2.60;;;;;;;31.31;31.37;97057.19;5054981;28;20203;-52
2022/06/12 10:27:40;;;;;;;2.22;1.75;;;;;;;30.79;34.75;97044.22;5054129;28;20204;-50
2022/06/12 10:30:25;;;;;;;1.60;1.50;;;;;;;31.27;33.26;97045.94;5053361;28;20199;-52
2022/06/12 10:32:54;;;;;;;1.73;1.63;;;;;;;31.43;33.05;97046.84;5054587;28;20191;-52
2022/06/12 10:35:24;;;;;;;1.50;1.40;;;;;;;31.51;32.81;97035.41;5054393;28;20312;-53
2022/06/12 10:37:51;;;;;;;2.20;1.75;;;;;;;31.10;32.00;97037.09;5054655;28;20233;-52
2022/06/12 10:40:22;;;;;;;1.75;1.65;;;;;;;31.65;31.97;97033.03;5054507;28;20221;-54
2022/06/12 10:42:51;;;;;;;1.67;1.58;;;;;;;31.76;33.03;97024.59;5053272;28;20594;-54
2022/06/12 10:45:24;;;;;;;1.98;1.88;;;;;;;31.70;32.47;97027.59;5052819;28;20334;-54
2022/06/12 10:47:51;;;;;;;1.63;1.50;;;;;;;31.90;34.31;97022.19;5052746;28;20651;-53
2022/06/12 10:50:25;;;;;;;1.60;1.50;;;;;;;31.99;33.81;97026.06;5052211;28;20218;-50
2022/06/12 10:52:57;;;;;;;1.80;1.70;;;;;;;32.03;34.33;97016.19;5053716;28;20207;-49
2022/06/12 10:55:37;;;;;;;3.08;1.90;;;;;;;32.14;33.50;97012.41;5052768;28;20211;-50
2022/06/12 10:58:10;;;;;;;1.70;1.52;;;;;;;32.16;31.97;97015.72;5053177;28;20289;-51
2022/06/12 11:00:41;;;;;;;4.82;1.85;;;;;;;32.12;33.96;97014.63;5052805;28;20196;-50
2022/06/12 11:03:19;;;;;;;2.08;1.75;;;;;;;32.06;32.80;97004.75;5050836;28;20704;-50
2022/06/12 11:05:57;;;;;;;2.03;1.92;;;;;;;31.90;32.94;97011.25;5053206;28;20285;-50
2022/06/12 11:08:35;;;;;;;2.30;2.10;;;;;;;31.80;32.89;97011.22;5053192;28;20314;-50
2022/06/12 11:11:09;;;;;;;1.90;1.80;;;;;;;31.86;33.29;97000.00;5051119;28;20697;-50
2022/06/12 11:13:48;;;;;;;1.90;1.80;;;;;;;31.94;32.60;96985.81;5053083;28;20245;-50
2022/06/12 11:16:23;;;;;;;1.83;1.73;;;;;;;32.01;32.83;96991.84;5051688;28;20195;-53
2022/06/12 11:19:02;;;;;;;2.13;1.92;;;;;;;31.86;32.72;96989.06;5052613;28;20527;-49
2022/06/12 11:21:38;;;;;;;1.85;1.75;;;;;;;31.77;33.03;96987.16;5053145;28;20290;-50
2022/06/12 11:24:15;;;;;;;2.00;1.90;;;;;;;31.75;31.66;96981.09;5053271;28;20289;-53
2022/06/12 11:26:58;;;;;;;1.55;1.45;;;;;;;31.85;33.91;96973.75;5052620;28;20194;-52
2022/06/12 11:29:45;;;;;;;1.48;1.38;;;;;;;31.81;32.48;96972.66;5053025;28;20935;-54
2022/06/12 11:32:21;;;;;;;1.88;1.73;;;;;;;31.86;31.38;96975.41;5053663;28;20213;-53
2022/06/12 11:35:00;;;;;;;1.40;1.40;;;;;;;31.92;32.17;96973.50;5053202;28;20211;-51
2022/06/12 11:37:43;;;;;;;1.60;1.50;;;;;;;32.08;31.75;96958.78;5053978;28;20329;-48
2022/06/12 11:40:18;;;;;;;1.75;1.52;;;;;;;32.07;32.13;96962.59;5053685;28;20589;-49
2022/06/12 11:43:02;;;;;;;1.52;1.33;;;;;;;32.16;32.93;96957.44;5052479;28;20288;-49
2022/06/12 11:45:40;;;;;;;1.27;1.15;;;;;;;32.22;32.14;96954.41;5013518;28;20196;-48
2022/06/12 11:48:28;;;;;;;1.50;1.40;;;;;;;32.20;28.44;96950.31;5013581;28;20204;-49
2022/06/12 11:50:59;;;;;;;1.48;1.40;;;;;;;32.08;29.34;96947.84;5023938;28;20296;-49
2022/06/12 11:53:38;;;;;;;1.02;1.02;;;;;;;32.08;29.79;96947.00;5020870;28;20228;-48
2022/06/12 11:56:12;;;;;;;2.67;2.42;;;;;;;32.22;30.00;96945.38;5015481;28;20296;-49
2022/06/12 11:58:51;;;;;;;2.15;1.98;;;;;;;32.35;32.34;96942.09;5013473;28;20211;-50
2022/06/12 12:01:23;;;;;;;2.00;1.90;;;;;;;32.46;33.38;96939.06;5013777;28;20275;-50
2022/06/12 12:04:16;;;;;;;3.75;3.25;;;;;;;32.61;33.27;96941.00;5013527;28;20292;-49